sensor_id;sensor_type;location;lat;lon;timestamp;temperature;humidity
2945;DHT22;1482;51.398;7.128;2022-07-23T00:00:00;17.30;99.90
2945;DHT22;1482;51.398;7.128;2022-07-23T00:02:26;17.40;1.00
2945;DHT22;1482;51.398;7.128;2022-07-23T00:04:52;17.50;99.90
2945;DHT22;1482;51.398;7.128;2022-07-23T00:07:17;17.30;91.30
2945;DHT22;1482;51.398;7.128;2022-07-23T00:09:43;17.20;1.00
2945;DHT22;1482;51.398;7.128;2022-07-23T00:12:09;17.30;1.00
2945;DHT22;1482;51.398;7.128;2022-07-23T00:14:34;17.00;11.20
2945;DHT22;1482;51.398;7.128;2022-07-23T00:17:00;17.10;60.90
2945;DHT22;1482;51.398;7.128;2022-07-23T00:19:25;17.10;1.00
2945;DHT22;1482;51.398;7.128;2022-07-23T00:21:51;17.00;1.00
2945;DHT22;1482;51.398;7.128;2022-07-23T00:24:16;17.00;1.00
2945;DHT22;1482;51.398;7.128;2022-07-23T00:26:42;16.80;1.00
2945;DHT22;1482;51.398;7.128;2022-07-23T00:29:08;16.80;1.00
2945;DHT22;1482;51.398;7.128;2022-07-23T00:31:33;16.90;99.90
2945;DHT22;1482;51.398;7.128;2022-07-23T00:33:59;16.80;1.00
2945;DHT22;1482;51.398;7.128;2022-07-23T00:36:27;16.90;1.00
2945;DHT22;1482;51.398;7.128;2022-07-23T00:38:52;16.80;99.90
2945;DHT22;1482;51.398;7.128;2022-07-23T00:41:18;16.70;1.00
2945;DHT22;1482;51.398;7.128;2022-07-23T00:43:44;16.70;99.90
2945;DHT22;1482;51.398;7.128;2022-07-23T00:46:10;16.70;99.90
2945;DHT22;1482;51.398;7.128;2022-07-23T00:48:35;16.80;99.90
2945;DHT22;1482;51.398;7.128;2022-07-23T00:51:01;16.70;21.40
2945;DHT22;1482;51.398;7.128;2022-07-23T00:53:27;16.50;1.00
2945;DHT22;1482;51.398;7.128;2022-07-23T00:55:53;16.60;54.90
2945;DHT22;1482;51.398;7.128;2022-07-23T00:58:19;16.60;58.90
2945;DHT22;1482;51.398;7.128;2022-07-23T01:00:45;16.60;99.90
2945;DHT22;1482;51.398;7.128;2022-07-23T01:03:11;16.70;1.00
2945;DHT22;1482;51.398;7.128;2022-07-23T01:05:37;16.70;1.00
2945;DHT22;1482;51.398;7.128;2022-07-23T01:08:03;16.70;1.00
2945;DHT22;1482;51.398;7.128;2022-07-23T01:10:28;16.70;1.00
2945;DHT22;1482;51.398;7.128;2022-07-23T01:13:05;16.70;1.00
2945;DHT22;1482;51.398;7.128;2022-07-23T01:15:33;16.70;99.90
2945;DHT22;1482;51.398;7.128;2022-07-23T01:18:00;16.70;99.90
2945;DHT22;1482;51.398;7.128;2022-07-23T01:20:25;16.80;1.00
2945;DHT22;1482;51.398;7.128;2022-07-23T01:22:52;16.80;1.00
2945;DHT22;1482;51.398;7.128;2022-07-23T01:25:18;16.80;99.90
2945;DHT22;1482;51.398;7.128;2022-07-23T01:27:44;16.90;99.90
2945;DHT22;1482;51.398;7.128;2022-07-23T01:30:10;16.90;1.00
2945;DHT22;1482;51.398;7.128;2022-07-23T01:32:36;17.00;99.90
2945;DHT22;1482;51.398;7.128;2022-07-23T01:35:02;17.00;38.90
2945;DHT22;1482;51.398;7.128;2022-07-23T01:37:28;16.90;1.40
2945;DHT22;1482;51.398;7.128;2022-07-23T01:39:53;16.80;1.00
2945;DHT22;1482;51.398;7.128;2022-07-23T01:42:19;16.80;99.90
2945;DHT22;1482;51.398;7.128;2022-07-23T01:44:44;16.80;1.00
2945;DHT22;1482;51.398;7.128;2022-07-23T01:47:10;16.70;90.80
2945;DHT22;1482;51.398;7.128;2022-07-23T01:49:36;16.60;71.50
2945;DHT22;1482;51.398;7.128;2022-07-23T01:52:02;16.70;20.50
2945;DHT22;1482;51.398;7.128;2022-07-23T01:54:33;16.80;1.00
2945;DHT22;1482;51.398;7.128;2022-07-23T01:56:59;16.70;1.00
2945;DHT22;1482;51.398;7.128;2022-07-23T01:59:26;16.80;99.90
2945;DHT22;1482;51.398;7.128;2022-07-23T02:01:51;16.90;99.90
2945;DHT22;1482;51.398;7.128;2022-07-23T02:04:19;16.90;10.20
2945;DHT22;1482;51.398;7.128;2022-07-23T02:06:45;17.00;99.90
2945;DHT22;1482;51.398;7.128;2022-07-23T02:09:10;17.00;99.90
2945;DHT22;1482;51.398;7.128;2022-07-23T02:11:36;17.10;1.00
2945;DHT22;1482;51.398;7.128;2022-07-23T02:14:02;17.10;99.90
2945;DHT22;1482;51.398;7.128;2022-07-23T02:16:27;17.00;99.90
2945;DHT22;1482;51.398;7.128;2022-07-23T02:18:53;17.00;99.90
2945;DHT22;1482;51.398;7.128;2022-07-23T02:21:19;17.00;1.00
2945;DHT22;1482;51.398;7.128;2022-07-23T02:23:44;17.10;99.90
2945;DHT22;1482;51.398;7.128;2022-07-23T02:26:10;17.10;99.90
2945;DHT22;1482;51.398;7.128;2022-07-23T02:28:35;17.10;99.90
2945;DHT22;1482;51.398;7.128;2022-07-23T02:31:01;17.10;99.90
2945;DHT22;1482;51.398;7.128;2022-07-23T02:33:27;17.10;99.90
2945;DHT22;1482;51.398;7.128;2022-07-23T02:35:52;17.10;22.00
2945;DHT22;1482;51.398;7.128;2022-07-23T02:38:18;17.10;1.00
2945;DHT22;1482;51.398;7.128;2022-07-23T02:40:44;17.10;99.90
2945;DHT22;1482;51.398;7.128;2022-07-23T02:43:09;17.10;1.00
2945;DHT22;1482;51.398;7.128;2022-07-23T02:45:35;17.10;1.00
2945;DHT22;1482;51.398;7.128;2022-07-23T02:48:00;17.10;99.90
2945;DHT22;1482;51.398;7.128;2022-07-23T02:50:26;17.10;99.90
2945;DHT22;1482;51.398;7.128;2022-07-23T02:52:51;17.10;99.90
2945;DHT22;1482;51.398;7.128;2022-07-23T02:55:17;17.00;15.00
2945;DHT22;1482;51.398;7.128;2022-07-23T02:57:43;17.00;1.00
2945;DHT22;1482;51.398;7.128;2022-07-23T03:00:09;17.00;1.00
2945;DHT22;1482;51.398;7.128;2022-07-23T03:02:34;17.00;1.00
2945;DHT22;1482;51.398;7.128;2022-07-23T03:05:00;16.90;1.00
2945;DHT22;1482;51.398;7.128;2022-07-23T03:07:26;16.80;99.90
2945;DHT22;1482;51.398;7.128;2022-07-23T03:09:51;16.80;1.00
2945;DHT22;1482;51.398;7.128;2022-07-23T03:12:17;16.80;99.90
2945;DHT22;1482;51.398;7.128;2022-07-23T03:14:42;16.70;99.90
2945;DHT22;1482;51.398;7.128;2022-07-23T03:17:08;16.70;99.90
2945;DHT22;1482;51.398;7.128;2022-07-23T03:19:34;16.70;1.00
2945;DHT22;1482;51.398;7.128;2022-07-23T03:22:00;16.70;1.00
2945;DHT22;1482;51.398;7.128;2022-07-23T03:24:25;16.60;1.00
2945;DHT22;1482;51.398;7.128;2022-07-23T03:27:11;16.60;19.20
2945;DHT22;1482;51.398;7.128;2022-07-23T03:29:37;16.50;1.00
2945;DHT22;1482;51.398;7.128;2022-07-23T03:32:03;16.50;1.00
2945;DHT22;1482;51.398;7.128;2022-07-23T03:34:29;16.50;1.00
2945;DHT22;1482;51.398;7.128;2022-07-23T03:36:54;16.50;99.90
2945;DHT22;1482;51.398;7.128;2022-07-23T03:39:20;16.50;1.00
2945;DHT22;1482;51.398;7.128;2022-07-23T03:41:46;16.50;1.00
2945;DHT22;1482;51.398;7.128;2022-07-23T03:44:11;16.40;99.90
2945;DHT22;1482;51.398;7.128;2022-07-23T03:46:37;16.40;1.00
2945;DHT22;1482;51.398;7.128;2022-07-23T03:49:02;16.40;1.00
2945;DHT22;1482;51.398;7.128;2022-07-23T03:51:28;16.40;1.00
2945;DHT22;1482;51.398;7.128;2022-07-23T03:53:53;16.40;1.00
2945;DHT22;1482;51.398;7.128;2022-07-23T03:56:21;16.40;1.00
2945;DHT22;1482;51.398;7.128;2022-07-23T03:58:46;16.40;43.10
2945;DHT22;1482;51.398;7.128;2022-07-23T04:01:12;16.40;99.90
2945;DHT22;1482;51.398;7.128;2022-07-23T04:03:38;16.40;99.90
2945;DHT22;1482;51.398;7.128;2022-07-23T04:06:04;16.50;1.00
2945;DHT22;1482;51.398;7.128;2022-07-23T04:08:29;16.50;2.50
2945;DHT22;1482;51.398;7.128;2022-07-23T04:10:55;16.50;99.90
2945;DHT22;1482;51.398;7.128;2022-07-23T04:13:21;16.50;1.00
2945;DHT22;1482;51.398;7.128;2022-07-23T04:15:46;16.60;99.90
2945;DHT22;1482;51.398;7.128;2022-07-23T04:18:12;16.60;99.90
2945;DHT22;1482;51.398;7.128;2022-07-23T04:20:38;16.60;1.00
2945;DHT22;1482;51.398;7.128;2022-07-23T04:23:03;16.70;1.00
2945;DHT22;1482;51.398;7.128;2022-07-23T04:25:29;16.70;71.60
2945;DHT22;1482;51.398;7.128;2022-07-23T04:27:54;16.80;99.90
2945;DHT22;1482;51.398;7.128;2022-07-23T04:30:20;16.80;80.00
2945;DHT22;1482;51.398;7.128;2022-07-23T04:32:46;16.80;30.20
2945;DHT22;1482;51.398;7.128;2022-07-23T04:35:12;16.90;99.90
2945;DHT22;1482;51.398;7.128;2022-07-23T04:37:38;17.00;1.00
2945;DHT22;1482;51.398;7.128;2022-07-23T04:40:04;17.00;1.00
2945;DHT22;1482;51.398;7.128;2022-07-23T04:42:30;17.10;99.90
2945;DHT22;1482;51.398;7.128;2022-07-23T04:44:55;17.10;1.00
2945;DHT22;1482;51.398;7.128;2022-07-23T04:47:21;17.10;99.90
2945;DHT22;1482;51.398;7.128;2022-07-23T04:49:46;17.10;99.90
2945;DHT22;1482;51.398;7.128;2022-07-23T04:52:12;17.20;99.90
2945;DHT22;1482;51.398;7.128;2022-07-23T04:54:37;17.30;99.90
2945;DHT22;1482;51.398;7.128;2022-07-23T04:57:03;17.30;95.60
2945;DHT22;1482;51.398;7.128;2022-07-23T04:59:28;17.30;99.90
2945;DHT22;1482;51.398;7.128;2022-07-23T05:01:54;17.30;1.00
2945;DHT22;1482;51.398;7.128;2022-07-23T05:04:20;17.40;99.90
2945;DHT22;1482;51.398;7.128;2022-07-23T05:06:45;17.40;99.90
2945;DHT22;1482;51.398;7.128;2022-07-23T05:09:11;17.40;1.00
2945;DHT22;1482;51.398;7.128;2022-07-23T05:11:36;17.40;99.90
2945;DHT22;1482;51.398;7.128;2022-07-23T05:14:02;17.30;99.90
2945;DHT22;1482;51.398;7.128;2022-07-23T05:16:27;17.40;99.90
2945;DHT22;1482;51.398;7.128;2022-07-23T05:18:53;17.50;1.00
2945;DHT22;1482;51.398;7.128;2022-07-23T05:21:19;17.50;15.10
2945;DHT22;1482;51.398;7.128;2022-07-23T05:23:45;17.40;1.00
2945;DHT22;1482;51.398;7.128;2022-07-23T05:26:11;17.50;1.00
2945;DHT22;1482;51.398;7.128;2022-07-23T05:28:36;17.60;1.00
2945;DHT22;1482;51.398;7.128;2022-07-23T05:31:02;17.70;99.90
2945;DHT22;1482;51.398;7.128;2022-07-23T05:33:29;17.60;1.00
2945;DHT22;1482;51.398;7.128;2022-07-23T05:36:01;17.80;1.00
2945;DHT22;1482;51.398;7.128;2022-07-23T05:38:27;17.90;1.00
2945;DHT22;1482;51.398;7.128;2022-07-23T05:40:52;18.00;1.00
2945;DHT22;1482;51.398;7.128;2022-07-23T05:43:18;18.00;1.00
2945;DHT22;1482;51.398;7.128;2022-07-23T05:45:43;18.10;99.90
2945;DHT22;1482;51.398;7.128;2022-07-23T05:48:09;18.20;99.90
2945;DHT22;1482;51.398;7.128;2022-07-23T05:50:34;18.30;48.90
2945;DHT22;1482;51.398;7.128;2022-07-23T05:53:00;18.30;1.00
2945;DHT22;1482;51.398;7.128;2022-07-23T05:55:26;18.40;1.00
2945;DHT22;1482;51.398;7.128;2022-07-23T05:57:57;18.40;1.00
2945;DHT22;1482;51.398;7.128;2022-07-23T06:00:23;18.40;1.00
2945;DHT22;1482;51.398;7.128;2022-07-23T06:02:49;18.40;1.00
2945;DHT22;1482;51.398;7.128;2022-07-23T06:05:15;18.40;1.00
2945;DHT22;1482;51.398;7.128;2022-07-23T06:07:40;18.50;1.00
2945;DHT22;1482;51.398;7.128;2022-07-23T06:10:06;18.40;1.00
2945;DHT22;1482;51.398;7.128;2022-07-23T06:12:32;18.50;1.00
2945;DHT22;1482;51.398;7.128;2022-07-23T06:14:59;18.50;1.00
2945;DHT22;1482;51.398;7.128;2022-07-23T06:17:25;18.50;1.00
2945;DHT22;1482;51.398;7.128;2022-07-23T06:19:50;18.70;1.00
2945;DHT22;1482;51.398;7.128;2022-07-23T06:22:16;18.80;1.00
2945;DHT22;1482;51.398;7.128;2022-07-23T06:24:42;18.90;1.00
2945;DHT22;1482;51.398;7.128;2022-07-23T06:27:07;19.00;1.00
2945;DHT22;1482;51.398;7.128;2022-07-23T06:29:33;19.20;99.90
2945;DHT22;1482;51.398;7.128;2022-07-23T06:31:58;19.40;99.90
2945;DHT22;1482;51.398;7.128;2022-07-23T06:34:24;20.20;99.90
2945;DHT22;1482;51.398;7.128;2022-07-23T06:36:50;21.20;99.90
2945;DHT22;1482;51.398;7.128;2022-07-23T06:39:16;22.40;5.60
2945;DHT22;1482;51.398;7.128;2022-07-23T06:41:41;22.80;1.00
2945;DHT22;1482;51.398;7.128;2022-07-23T06:44:07;23.00;1.00
2945;DHT22;1482;51.398;7.128;2022-07-23T06:46:33;22.90;1.00
2945;DHT22;1482;51.398;7.128;2022-07-23T06:48:58;22.90;1.00
2945;DHT22;1482;51.398;7.128;2022-07-23T06:51:24;22.70;1.00
2945;DHT22;1482;51.398;7.128;2022-07-23T06:53:49;22.80;1.00
2945;DHT22;1482;51.398;7.128;2022-07-23T06:56:15;23.10;1.00
2945;DHT22;1482;51.398;7.128;2022-07-23T06:58:41;24.10;1.00
2945;DHT22;1482;51.398;7.128;2022-07-23T07:01:06;25.40;1.00
2945;DHT22;1482;51.398;7.128;2022-07-23T07:03:32;27.40;1.00
2945;DHT22;1482;51.398;7.128;2022-07-23T07:05:57;28.50;1.00
2945;DHT22;1482;51.398;7.128;2022-07-23T07:08:23;30.60;1.00
2945;DHT22;1482;51.398;7.128;2022-07-23T07:10:49;32.50;1.00
2945;DHT22;1482;51.398;7.128;2022-07-23T07:13:15;32.10;1.00
2945;DHT22;1482;51.398;7.128;2022-07-23T07:15:40;31.30;1.00
2945;DHT22;1482;51.398;7.128;2022-07-23T07:18:06;30.30;1.00
2945;DHT22;1482;51.398;7.128;2022-07-23T07:20:32;29.40;1.00
2945;DHT22;1482;51.398;7.128;2022-07-23T07:22:57;30.60;1.00
2945;DHT22;1482;51.398;7.128;2022-07-23T07:25:23;33.70;1.00
2945;DHT22;1482;51.398;7.128;2022-07-23T07:27:49;34.20;1.00
2945;DHT22;1482;51.398;7.128;2022-07-23T07:30:14;33.30;1.00
2945;DHT22;1482;51.398;7.128;2022-07-23T07:32:40;32.00;1.00
2945;DHT22;1482;51.398;7.128;2022-07-23T07:35:06;30.60;1.00
2945;DHT22;1482;51.398;7.128;2022-07-23T07:37:32;29.60;1.00
2945;DHT22;1482;51.398;7.128;2022-07-23T07:39:58;28.80;1.00
2945;DHT22;1482;51.398;7.128;2022-07-23T07:42:24;28.10;1.00
2945;DHT22;1482;51.398;7.128;2022-07-23T07:44:49;27.50;1.00
2945;DHT22;1482;51.398;7.128;2022-07-23T07:47:15;27.10;1.00
2945;DHT22;1482;51.398;7.128;2022-07-23T07:49:43;26.90;1.00
2945;DHT22;1482;51.398;7.128;2022-07-23T07:52:10;26.60;1.00
2945;DHT22;1482;51.398;7.128;2022-07-23T07:54:36;26.40;1.00
2945;DHT22;1482;51.398;7.128;2022-07-23T07:57:02;26.20;1.00
2945;DHT22;1482;51.398;7.128;2022-07-23T07:59:28;26.20;1.00
2945;DHT22;1482;51.398;7.128;2022-07-23T08:01:54;26.10;1.00
2945;DHT22;1482;51.398;7.128;2022-07-23T08:04:19;25.90;1.00
2945;DHT22;1482;51.398;7.128;2022-07-23T08:06:45;25.70;1.00
2945;DHT22;1482;51.398;7.128;2022-07-23T08:09:11;25.60;1.00
2945;DHT22;1482;51.398;7.128;2022-07-23T08:11:36;25.60;1.00
2945;DHT22;1482;51.398;7.128;2022-07-23T08:14:02;25.70;1.00
2945;DHT22;1482;51.398;7.128;2022-07-23T08:16:28;25.70;1.00
2945;DHT22;1482;51.398;7.128;2022-07-23T08:18:53;25.80;1.00
2945;DHT22;1482;51.398;7.128;2022-07-23T08:21:19;26.00;1.00
2945;DHT22;1482;51.398;7.128;2022-07-23T08:23:44;25.80;1.00
2945;DHT22;1482;51.398;7.128;2022-07-23T08:26:10;25.80;1.00
2945;DHT22;1482;51.398;7.128;2022-07-23T08:28:36;25.50;1.00
2945;DHT22;1482;51.398;7.128;2022-07-23T08:31:01;25.40;1.00
2945;DHT22;1482;51.398;7.128;2022-07-23T08:33:27;25.30;1.00
2945;DHT22;1482;51.398;7.128;2022-07-23T08:35:53;25.20;1.00
2945;DHT22;1482;51.398;7.128;2022-07-23T08:38:21;25.30;1.00
2945;DHT22;1482;51.398;7.128;2022-07-23T08:40:49;25.30;1.00
2945;DHT22;1482;51.398;7.128;2022-07-23T08:43:22;25.30;1.00
2945;DHT22;1482;51.398;7.128;2022-07-23T08:45:54;25.00;1.00
2945;DHT22;1482;51.398;7.128;2022-07-23T08:48:23;24.90;1.00
2945;DHT22;1482;51.398;7.128;2022-07-23T08:50:51;24.70;1.00
2945;DHT22;1482;51.398;7.128;2022-07-23T08:53:18;24.60;1.00
2945;DHT22;1482;51.398;7.128;2022-07-23T08:55:45;24.70;1.00
2945;DHT22;1482;51.398;7.128;2022-07-23T08:58:11;24.70;1.00
2945;DHT22;1482;51.398;7.128;2022-07-23T09:00:37;24.80;1.00
2945;DHT22;1482;51.398;7.128;2022-07-23T09:03:02;25.00;1.00
2945;DHT22;1482;51.398;7.128;2022-07-23T09:05:28;25.20;1.00
2945;DHT22;1482;51.398;7.128;2022-07-23T09:08:13;25.30;1.00
2945;DHT22;1482;51.398;7.128;2022-07-23T09:13:29;25.90;1.00
2945;DHT22;1482;51.398;7.128;2022-07-23T09:16:18;26.10;1.00
2945;DHT22;1482;51.398;7.128;2022-07-23T09:18:47;26.30;1.00
2945;DHT22;1482;51.398;7.128;2022-07-23T09:21:20;26.20;1.00
2945;DHT22;1482;51.398;7.128;2022-07-23T09:23:50;26.20;1.00
2945;DHT22;1482;51.398;7.128;2022-07-23T09:32:04;26.60;1.00
2945;DHT22;1482;51.398;7.128;2022-07-23T09:34:34;26.80;1.00
2945;DHT22;1482;51.398;7.128;2022-07-23T09:37:15;27.00;1.00
2945;DHT22;1482;51.398;7.128;2022-07-23T09:39:42;26.90;1.00
2945;DHT22;1482;51.398;7.128;2022-07-23T09:42:23;26.80;1.00
2945;DHT22;1482;51.398;7.128;2022-07-23T09:44:52;26.90;1.00
2945;DHT22;1482;51.398;7.128;2022-07-23T09:47:19;26.90;1.00
2945;DHT22;1482;51.398;7.128;2022-07-23T09:52:46;27.20;1.00
2945;DHT22;1482;51.398;7.128;2022-07-23T09:55:14;27.30;1.00
2945;DHT22;1482;51.398;7.128;2022-07-23T09:57:41;27.50;1.00
2945;DHT22;1482;51.398;7.128;2022-07-23T10:00:08;27.60;1.00
2945;DHT22;1482;51.398;7.128;2022-07-23T10:02:36;27.70;1.00
2945;DHT22;1482;51.398;7.128;2022-07-23T10:05:03;27.40;1.00
2945;DHT22;1482;51.398;7.128;2022-07-23T10:07:31;27.30;1.00
2945;DHT22;1482;51.398;7.128;2022-07-23T10:09:59;27.40;1.00
2945;DHT22;1482;51.398;7.128;2022-07-23T10:12:25;27.40;1.00
2945;DHT22;1482;51.398;7.128;2022-07-23T10:14:58;27.40;1.00
2945;DHT22;1482;51.398;7.128;2022-07-23T10:17:23;27.00;1.00
2945;DHT22;1482;51.398;7.128;2022-07-23T10:19:49;26.90;1.00
2945;DHT22;1482;51.398;7.128;2022-07-23T10:22:21;26.90;1.00
2945;DHT22;1482;51.398;7.128;2022-07-23T10:30:06;27.40;1.00
2945;DHT22;1482;51.398;7.128;2022-07-23T10:32:53;26.90;1.00
2945;DHT22;1482;51.398;7.128;2022-07-23T10:35:36;27.10;1.00
2945;DHT22;1482;51.398;7.128;2022-07-23T10:38:30;27.30;1.00
2945;DHT22;1482;51.398;7.128;2022-07-23T10:41:00;27.60;1.00
2945;DHT22;1482;51.398;7.128;2022-07-23T10:43:27;27.90;1.00
2945;DHT22;1482;51.398;7.128;2022-07-23T10:45:53;28.10;1.00
2945;DHT22;1482;51.398;7.128;2022-07-23T10:48:24;28.30;1.00
2945;DHT22;1482;51.398;7.128;2022-07-23T10:51:15;28.40;1.00
2945;DHT22;1482;51.398;7.128;2022-07-23T10:53:57;28.60;1.00
2945;DHT22;1482;51.398;7.128;2022-07-23T10:59:20;28.90;1.00
2945;DHT22;1482;51.398;7.128;2022-07-23T11:01:46;29.00;1.00
2945;DHT22;1482;51.398;7.128;2022-07-23T11:04:12;28.90;1.00
2945;DHT22;1482;51.398;7.128;2022-07-23T11:09:50;29.00;1.00
2945;DHT22;1482;51.398;7.128;2022-07-23T11:15:09;29.00;1.00
2945;DHT22;1482;51.398;7.128;2022-07-23T11:18:18;29.10;1.00
2945;DHT22;1482;51.398;7.128;2022-07-23T11:20:28;29.20;1.00
2945;DHT22;1482;51.398;7.128;2022-07-23T11:22:58;29.20;1.00
2945;DHT22;1482;51.398;7.128;2022-07-23T11:30:45;29.20;1.00
2945;DHT22;1482;51.398;7.128;2022-07-23T11:35:39;29.40;1.00
2945;DHT22;1482;51.398;7.128;2022-07-23T11:38:18;29.50;1.00
2945;DHT22;1482;51.398;7.128;2022-07-23T11:40:52;29.50;1.00
2945;DHT22;1482;51.398;7.128;2022-07-23T11:43:19;29.30;1.00
2945;DHT22;1482;51.398;7.128;2022-07-23T11:45:48;29.20;1.00
2945;DHT22;1482;51.398;7.128;2022-07-23T11:48:24;29.20;1.00
2945;DHT22;1482;51.398;7.128;2022-07-23T11:50:51;29.20;1.00
2945;DHT22;1482;51.398;7.128;2022-07-23T11:53:28;29.20;1.00
2945;DHT22;1482;51.398;7.128;2022-07-23T11:56:02;29.30;1.00
2945;DHT22;1482;51.398;7.128;2022-07-23T11:58:27;29.50;1.00
2945;DHT22;1482;51.398;7.128;2022-07-23T12:00:55;29.60;1.00
2945;DHT22;1482;51.398;7.128;2022-07-23T12:03:21;29.60;1.00
2945;DHT22;1482;51.398;7.128;2022-07-23T12:05:46;29.80;1.00
2945;DHT22;1482;51.398;7.128;2022-07-23T12:08:12;29.70;1.00
2945;DHT22;1482;51.398;7.128;2022-07-23T12:10:41;29.40;1.00
2945;DHT22;1482;51.398;7.128;2022-07-23T12:13:17;29.10;1.00
2945;DHT22;1482;51.398;7.128;2022-07-23T12:15:54;29.10;1.00
2945;DHT22;1482;51.398;7.128;2022-07-23T12:18:24;29.10;1.00
2945;DHT22;1482;51.398;7.128;2022-07-23T12:20:52;29.10;1.00
2945;DHT22;1482;51.398;7.128;2022-07-23T12:23:19;29.10;1.00
2945;DHT22;1482;51.398;7.128;2022-07-23T12:25:46;29.10;1.00
2945;DHT22;1482;51.398;7.128;2022-07-23T12:28:20;29.10;1.00
2945;DHT22;1482;51.398;7.128;2022-07-23T12:30:48;29.40;1.00
2945;DHT22;1482;51.398;7.128;2022-07-23T12:33:22;29.50;1.00
2945;DHT22;1482;51.398;7.128;2022-07-23T12:35:49;29.80;1.00
2945;DHT22;1482;51.398;7.128;2022-07-23T12:38:17;30.00;1.00
2945;DHT22;1482;51.398;7.128;2022-07-23T12:40:56;30.20;1.00
2945;DHT22;1482;51.398;7.128;2022-07-23T12:43:36;30.20;1.00
2945;DHT22;1482;51.398;7.128;2022-07-23T12:46:10;30.20;1.00
2945;DHT22;1482;51.398;7.128;2022-07-23T12:48:38;30.20;1.00
2945;DHT22;1482;51.398;7.128;2022-07-23T12:53:32;30.40;1.00
2945;DHT22;1482;51.398;7.128;2022-07-23T12:56:08;30.50;1.00
2945;DHT22;1482;51.398;7.128;2022-07-23T13:01:35;30.20;1.00
2945;DHT22;1482;51.398;7.128;2022-07-23T13:06:42;30.00;1.00
2945;DHT22;1482;51.398;7.128;2022-07-23T13:09:12;29.90;1.00
2945;DHT22;1482;51.398;7.128;2022-07-23T13:11:38;29.80;1.00
2945;DHT22;1482;51.398;7.128;2022-07-23T13:14:04;29.80;1.00
2945;DHT22;1482;51.398;7.128;2022-07-23T13:16:31;29.60;1.00
2945;DHT22;1482;51.398;7.128;2022-07-23T13:18:58;29.60;1.00
2945;DHT22;1482;51.398;7.128;2022-07-23T13:21:24;29.30;1.00
2945;DHT22;1482;51.398;7.128;2022-07-23T13:23:50;29.10;1.00
2945;DHT22;1482;51.398;7.128;2022-07-23T13:26:15;29.00;1.00
2945;DHT22;1482;51.398;7.128;2022-07-23T13:28:41;28.80;1.00
2945;DHT22;1482;51.398;7.128;2022-07-23T13:31:07;28.70;1.00
2945;DHT22;1482;51.398;7.128;2022-07-23T13:33:33;28.70;1.00
2945;DHT22;1482;51.398;7.128;2022-07-23T13:35:59;28.70;1.00
2945;DHT22;1482;51.398;7.128;2022-07-23T13:38:26;28.80;1.00
2945;DHT22;1482;51.398;7.128;2022-07-23T13:40:52;28.80;1.00
2945;DHT22;1482;51.398;7.128;2022-07-23T13:43:21;28.80;1.00
2945;DHT22;1482;51.398;7.128;2022-07-23T13:45:47;28.90;1.00
2945;DHT22;1482;51.398;7.128;2022-07-23T13:48:14;29.00;1.00
2945;DHT22;1482;51.398;7.128;2022-07-23T13:50:41;29.00;1.00
2945;DHT22;1482;51.398;7.128;2022-07-23T13:53:09;29.00;1.00
2945;DHT22;1482;51.398;7.128;2022-07-23T13:55:35;28.70;1.00
2945;DHT22;1482;51.398;7.128;2022-07-23T13:58:01;28.70;1.00
2945;DHT22;1482;51.398;7.128;2022-07-23T14:00:28;28.90;1.00
2945;DHT22;1482;51.398;7.128;2022-07-23T14:02:54;29.00;1.00
2945;DHT22;1482;51.398;7.128;2022-07-23T14:05:20;28.90;1.00
2945;DHT22;1482;51.398;7.128;2022-07-23T14:07:46;28.80;1.00
2945;DHT22;1482;51.398;7.128;2022-07-23T14:10:15;28.80;1.00
2945;DHT22;1482;51.398;7.128;2022-07-23T14:12:41;28.70;1.00
2945;DHT22;1482;51.398;7.128;2022-07-23T14:15:07;28.50;1.00
2945;DHT22;1482;51.398;7.128;2022-07-23T14:17:35;28.30;1.00
2945;DHT22;1482;51.398;7.128;2022-07-23T14:20:01;28.20;1.00
2945;DHT22;1482;51.398;7.128;2022-07-23T14:22:27;28.10;1.00
2945;DHT22;1482;51.398;7.128;2022-07-23T14:24:52;28.10;1.00
2945;DHT22;1482;51.398;7.128;2022-07-23T14:27:18;28.20;1.00
2945;DHT22;1482;51.398;7.128;2022-07-23T14:29:43;28.20;1.00
2945;DHT22;1482;51.398;7.128;2022-07-23T14:32:09;28.30;1.00
2945;DHT22;1482;51.398;7.128;2022-07-23T14:34:35;28.40;1.00
2945;DHT22;1482;51.398;7.128;2022-07-23T14:37:01;28.40;1.00
2945;DHT22;1482;51.398;7.128;2022-07-23T14:39:26;28.50;1.00
2945;DHT22;1482;51.398;7.128;2022-07-23T14:41:52;28.40;1.00
2945;DHT22;1482;51.398;7.128;2022-07-23T14:44:18;28.30;1.00
2945;DHT22;1482;51.398;7.128;2022-07-23T14:46:43;28.40;1.00
2945;DHT22;1482;51.398;7.128;2022-07-23T14:49:09;28.30;1.00
2945;DHT22;1482;51.398;7.128;2022-07-23T14:51:35;28.30;1.00
2945;DHT22;1482;51.398;7.128;2022-07-23T14:54:02;28.20;1.00
2945;DHT22;1482;51.398;7.128;2022-07-23T14:56:28;28.30;1.00
2945;DHT22;1482;51.398;7.128;2022-07-23T14:58:53;28.30;1.00
2945;DHT22;1482;51.398;7.128;2022-07-23T15:01:21;28.10;1.00
2945;DHT22;1482;51.398;7.128;2022-07-23T15:03:48;28.30;1.00
2945;DHT22;1482;51.398;7.128;2022-07-23T15:06:13;28.40;1.00
2945;DHT22;1482;51.398;7.128;2022-07-23T15:08:39;28.30;1.00
2945;DHT22;1482;51.398;7.128;2022-07-23T15:11:05;28.30;1.00
2945;DHT22;1482;51.398;7.128;2022-07-23T15:13:30;28.10;1.00
2945;DHT22;1482;51.398;7.128;2022-07-23T15:15:56;27.90;1.00
2945;DHT22;1482;51.398;7.128;2022-07-23T15:18:22;27.80;1.00
2945;DHT22;1482;51.398;7.128;2022-07-23T15:20:47;27.60;1.00
2945;DHT22;1482;51.398;7.128;2022-07-23T15:23:13;27.50;1.00
2945;DHT22;1482;51.398;7.128;2022-07-23T15:25:38;27.60;1.00
2945;DHT22;1482;51.398;7.128;2022-07-23T15:28:04;27.70;1.00
2945;DHT22;1482;51.398;7.128;2022-07-23T15:30:30;27.60;1.00
2945;DHT22;1482;51.398;7.128;2022-07-23T15:32:55;27.50;1.00
2945;DHT22;1482;51.398;7.128;2022-07-23T15:35:23;27.60;1.00
2945;DHT22;1482;51.398;7.128;2022-07-23T15:37:48;27.70;1.00
2945;DHT22;1482;51.398;7.128;2022-07-23T15:40:14;27.80;1.00
2945;DHT22;1482;51.398;7.128;2022-07-23T15:42:39;27.80;1.00
2945;DHT22;1482;51.398;7.128;2022-07-23T15:45:06;27.90;1.00
2945;DHT22;1482;51.398;7.128;2022-07-23T15:47:31;27.90;1.00
2945;DHT22;1482;51.398;7.128;2022-07-23T15:49:57;27.90;1.00
2945;DHT22;1482;51.398;7.128;2022-07-23T15:52:23;27.90;1.00
2945;DHT22;1482;51.398;7.128;2022-07-23T15:54:48;27.80;1.00
2945;DHT22;1482;51.398;7.128;2022-07-23T15:57:14;27.80;1.00
2945;DHT22;1482;51.398;7.128;2022-07-23T15:59:39;27.70;1.00
2945;DHT22;1482;51.398;7.128;2022-07-23T16:02:05;27.70;1.00
2945;DHT22;1482;51.398;7.128;2022-07-23T16:04:31;27.70;1.00
2945;DHT22;1482;51.398;7.128;2022-07-23T16:06:58;27.70;1.00
2945;DHT22;1482;51.398;7.128;2022-07-23T16:09:25;27.70;1.00
2945;DHT22;1482;51.398;7.128;2022-07-23T16:11:51;27.70;1.00
2945;DHT22;1482;51.398;7.128;2022-07-23T16:14:16;27.60;1.00
2945;DHT22;1482;51.398;7.128;2022-07-23T16:16:42;27.50;1.00
2945;DHT22;1482;51.398;7.128;2022-07-23T16:19:08;27.50;1.00
2945;DHT22;1482;51.398;7.128;2022-07-23T16:21:35;27.50;1.00
2945;DHT22;1482;51.398;7.128;2022-07-23T16:24:01;27.40;1.00
2945;DHT22;1482;51.398;7.128;2022-07-23T16:26:26;27.40;1.00
2945;DHT22;1482;51.398;7.128;2022-07-23T16:28:52;27.40;1.00
2945;DHT22;1482;51.398;7.128;2022-07-23T16:31:17;27.40;1.00
2945;DHT22;1482;51.398;7.128;2022-07-23T16:33:43;27.30;1.00
2945;DHT22;1482;51.398;7.128;2022-07-23T16:36:09;27.30;1.00
2945;DHT22;1482;51.398;7.128;2022-07-23T16:38:36;27.30;1.00
2945;DHT22;1482;51.398;7.128;2022-07-23T16:41:02;27.20;1.00
2945;DHT22;1482;51.398;7.128;2022-07-23T16:43:29;27.20;1.00
2945;DHT22;1482;51.398;7.128;2022-07-23T16:45:56;27.10;1.00
2945;DHT22;1482;51.398;7.128;2022-07-23T16:48:21;26.90;1.00
2945;DHT22;1482;51.398;7.128;2022-07-23T16:50:47;26.90;1.00
2945;DHT22;1482;51.398;7.128;2022-07-23T16:53:13;27.00;1.00